Página principal
METAR-TAF:

METAR-TAF

Aeroportos :

Mackinac Island Airport

Mackinac Island, Michigan, Estados Unidos

latitude: 45-51-54N, longitude: 084-38-14W, altura: 226 m

Observação actual do tempo

O boletim foi feito há 22 minutos, às 20:55 UTC
Vento 7 kt de oeste
Temperatura 23°C
Humidade 61%
Pressão 1011 hPa
Visibilidade: 16.1 km
Céu limpo

METAR: KMCD 272055Z AUTO 27007KT 10SM CLR 23/15 A2985 RMK AO2 T02330147

Hora: 17:17 (21:17 UTC)


TAF: em falta

Observações e previsões do tempo de mais de 4000 aeroportos (mensagens METAR e TAF).

As estações disponíveis são os pontos amarelos e vermelhos sobre o mapa.

Mova o rato sobre o mapa para ver o nome da estação.

Depois clique no ponto para visualizar as observações e previsões meteorológicas.

Para alterar o mapa : clique nos botões verdes com uma cruz preta para aumentar o zoom; no botão verde com uma pitada de zoom; ou nas setas verdes para mapas adjacentes.


METAR-TAF: